»·PEaware :: N786RF KLAX-KSNA

N786RF :: KLAX-KSNA

FLIGHT INFORMATION

Flight Status: Arrived
Operator: Privately registered:
United States
More flights under this callsign
Pilot: Rao F. (13171)
Aircraft: CESSNA 172 SKYHAWK
(C172)
More flights by this aircraft type
Origin: KLAX Los Angeles Intl
United States
Destination: KSNA John Wayne-Orange Co
United States
More flights between these airports :: More routes between these airports
Route: SLI8 SLI
File this flight plan on PilotEdge
Remarks:
Altitude:
(Current/Filed)
4,000ft
Speed:
(Current/Filed)
90kts
Departed: 01-Aug-20 10:56 PM
Arrived: 02-Aug-20 01:56 AM
Distance/Time
Traveled:
34nm/3:00
Distance/Time
To Go:
Arrived

Flight Plot

Page will automatically refresh every two minutes.


Map Options




Map Legend


Flown Route
Filed Route
Departure Airport
Arrival Airport
Navaid (VOR, NDB)
Fix

Horizontal Profiles

Position Reports

Time Latitude Longitude Heading Altitude Ground
Speed
01-Aug-20 22:33 33.933207 -118.397463 263 118ft 0kts
01-Aug-20 22:34 33.933207 -118.397463 263 118ft 0kts
01-Aug-20 22:35 33.933207 -118.397463 263 118ft 0kts
01-Aug-20 22:36 33.933207 -118.397463 263 118ft 0kts
01-Aug-20 22:37 33.933207 -118.397463 263 118ft 0kts
01-Aug-20 22:38 33.933207 -118.397463 263 118ft 0kts
01-Aug-20 22:39 33.933207 -118.397463 263 118ft 0kts
01-Aug-20 22:40 33.933207 -118.397463 263 118ft 0kts
01-Aug-20 22:41 33.933207 -118.397463 263 118ft 0kts
01-Aug-20 22:42 33.933207 -118.397463 263 118ft 0kts
01-Aug-20 22:43 33.933207 -118.397463 263 118ft 0kts
01-Aug-20 22:44 33.933207 -118.397463 263 118ft 0kts
01-Aug-20 22:45 33.933207 -118.397463 263 118ft 0kts
01-Aug-20 22:46 33.933207 -118.397463 263 118ft 0kts
01-Aug-20 22:47 33.933207 -118.397463 263 118ft 0kts
01-Aug-20 22:48 33.933121 -118.397923 254 119ft 18kts
01-Aug-20 22:49 33.934580 -118.397851 84 113ft 8kts
01-Aug-20 22:50 33.935372 -118.390137 83 104ft 23kts
01-Aug-20 22:51 33.936037 -118.383591 83 100ft 12kts
01-Aug-20 22:52 33.936436 -118.382745 350 99ft 0kts
01-Aug-20 22:53 33.936436 -118.382745 350 99ft 0kts
01-Aug-20 22:54 33.936436 -118.382745 350 99ft 0kts
01-Aug-20 22:55 33.936928 -118.387154 262 103ft 66kts
01-Aug-20 22:56 33.934648 -118.411828 262 1079ft 70kts
01-Aug-20 22:57 33.933177 -118.437260 265 2024ft 72kts
01-Aug-20 22:58 33.921138 -118.456784 217 2899ft 73kts
01-Aug-20 22:59 33.900721 -118.464071 167 3660ft 84kts
01-Aug-20 23:00 33.874680 -118.456726 170 3967ft 99kts
01-Aug-20 23:01 33.845634 -118.449163 165 4033ft 102kts
01-Aug-20 23:02 33.817271 -118.442134 172 3969ft 104kts
01-Aug-20 23:03 33.788990 -118.437783 152 3859ft 99kts
01-Aug-20 23:04 33.785865 -118.410261 60 3950ft 97kts
01-Aug-20 23:05 33.796706 -118.387470 61 3968ft 98kts
01-Aug-20 23:06 33.808853 -118.358053 64 3990ft 98kts
01-Aug-20 23:07 33.822023 -118.329151 62 4010ft 98kts
01-Aug-20 23:08 33.820167 -118.297186 106 4022ft 97kts
01-Aug-20 23:09 33.814313 -118.265078 99 4038ft 98kts
01-Aug-20 23:10 33.806883 -118.233450 112 4052ft 98kts
01-Aug-20 23:11 33.799632 -118.201699 105 4072ft 98kts
01-Aug-20 23:12 33.792980 -118.169882 110 4089ft 98kts
01-Aug-20 23:13 33.784452 -118.138541 108 4107ft 98kts
01-Aug-20 23:14 33.781341 -118.105997 89 4124ft 98kts
01-Aug-20 23:15 33.780563 -118.073136 92 4141ft 98kts
01-Aug-20 23:16 33.777683 -118.040403 88 4155ft 98kts
01-Aug-20 23:17 33.780198 -118.007545 87 4170ft 98kts
01-Aug-20 23:18 33.784107 -117.975101 70 4185ft 98kts
01-Aug-20 23:19 33.794170 -117.944438 66 4200ft 98kts
01-Aug-20 23:20 33.805987 -117.914740 65 4213ft 98kts
01-Aug-20 23:21 33.815303 -117.883699 63 4226ft 98kts
01-Aug-20 23:22 33.829986 -117.855879 53 4238ft 98kts
01-Aug-20 23:23 33.852589 -117.837777 29 4249ft 98kts
01-Aug-20 23:24 33.875105 -117.820862 32 4263ft 97kts
01-Aug-20 23:25 33.889775 -117.793769 70 4148ft 98kts
01-Aug-20 23:26 33.897667 -117.762206 83 4044ft 98kts
01-Aug-20 23:27 33.909403 -117.733070 55 3950ft 98kts
01-Aug-20 23:28 33.925716 -117.707186 24 3867ft 97kts
01-Aug-20 23:29 33.949789 -117.692763 25 3806ft 96kts
01-Aug-20 23:30 33.974280 -117.685774 330 3783ft 92kts
01-Aug-20 23:31 33.983492 -117.708866 214 3825ft 86kts
01-Aug-20 23:32 33.959521 -117.707121 182 3819ft 89kts
01-Aug-20 23:33 33.934432 -117.707836 181 3944ft 91kts
01-Aug-20 23:34 33.915144 -117.715391 208 3992ft 96kts
01-Aug-20 23:35 33.915144 -117.715391 208 3992ft 96kts
01-Aug-20 23:36 33.915144 -117.715391 208 3992ft 96kts
01-Aug-20 23:37 33.915144 -117.715391 208 3992ft 96kts
01-Aug-20 23:38 33.915144 -117.715391 208 3992ft 96kts
01-Aug-20 23:39 33.915144 -117.715391 208 3992ft 96kts
01-Aug-20 23:40 33.915144 -117.715391 208 3992ft 96kts
01-Aug-20 23:41 33.915144 -117.715391 208 3992ft 96kts
01-Aug-20 23:42 33.915144 -117.715391 208 3992ft 96kts
01-Aug-20 23:43 33.915144 -117.715391 208 3992ft 96kts
01-Aug-20 23:44 33.915144 -117.715391 208 3992ft 96kts
01-Aug-20 23:45 33.915144 -117.715391 208 3992ft 96kts
01-Aug-20 23:46 33.915144 -117.715391 208 3992ft 96kts
01-Aug-20 23:47 33.915144 -117.715391 208 3992ft 96kts
01-Aug-20 23:48 33.915144 -117.715391 208 3992ft 96kts
01-Aug-20 23:49 33.915144 -117.715391 208 3992ft 96kts
01-Aug-20 23:51 33.915144 -117.715391 208 3992ft 96kts
01-Aug-20 23:52 33.915144 -117.715391 208 3992ft 96kts
01-Aug-20 23:53 33.915144 -117.715391 208 3992ft 96kts
01-Aug-20 23:54 33.915144 -117.715391 208 3992ft 96kts
01-Aug-20 23:55 33.915144 -117.715391 208 3992ft 96kts
01-Aug-20 23:56 33.915144 -117.715391 208 3992ft 96kts
01-Aug-20 23:57 33.915144 -117.715391 208 3992ft 96kts
01-Aug-20 23:58 33.915144 -117.715391 208 3992ft 96kts
01-Aug-20 23:59 33.915144 -117.715391 208 3992ft 96kts
02-Aug-20 00:00 33.915144 -117.715391 208 3992ft 96kts
02-Aug-20 00:01 33.915144 -117.715391 208 3992ft 96kts
02-Aug-20 00:02 33.915144 -117.715391 208 3992ft 96kts
02-Aug-20 00:03 33.915144 -117.715391 208 3992ft 96kts
02-Aug-20 00:04 33.915144 -117.715391 208 3992ft 96kts
02-Aug-20 00:05 33.915144 -117.715391 208 3992ft 96kts
02-Aug-20 00:06 33.915144 -117.715391 208 3992ft 96kts
02-Aug-20 00:06 33.915144 -117.715391 208 3992ft 96kts
02-Aug-20 00:08 33.915144 -117.715391 208 3992ft 96kts
02-Aug-20 00:08 33.915144 -117.715391 208 3992ft 96kts
02-Aug-20 00:10 33.915144 -117.715391 208 3992ft 96kts
02-Aug-20 00:10 33.915144 -117.715391 208 3992ft 96kts
02-Aug-20 00:11 33.915144 -117.715391 208 3992ft 96kts
02-Aug-20 00:13 33.915144 -117.715391 208 3992ft 96kts
02-Aug-20 00:13 33.915144 -117.715391 208 3992ft 96kts
02-Aug-20 00:15 33.915144 -117.715391 208 3992ft 96kts
02-Aug-20 00:15 33.915144 -117.715391 208 3992ft 96kts
02-Aug-20 00:16 33.915144 -117.715391 208 3992ft 96kts
02-Aug-20 00:17 33.915144 -117.715391 208 3992ft 96kts
02-Aug-20 00:18 33.915144 -117.715391 208 3992ft 96kts
02-Aug-20 00:19 33.915144 -117.715391 208 3992ft 96kts
02-Aug-20 00:20 33.915144 -117.715391 208 3992ft 96kts
02-Aug-20 00:21 33.915144 -117.715391 208 3992ft 96kts
02-Aug-20 00:22 33.915144 -117.715391 208 3992ft 96kts
02-Aug-20 00:23 33.915144 -117.715391 208 3992ft 96kts
02-Aug-20 00:24 33.915144 -117.715391 208 3992ft 96kts
02-Aug-20 00:25 33.915144 -117.715391 208 3992ft 96kts
02-Aug-20 00:26 33.915144 -117.715391 208 3992ft 96kts
02-Aug-20 00:27 33.915144 -117.715391 208 3992ft 96kts
02-Aug-20 00:28 33.915144 -117.715391 208 3992ft 96kts
02-Aug-20 00:29 33.915144 -117.715391 208 3992ft 96kts
02-Aug-20 00:30 33.915144 -117.715391 208 3992ft 96kts
02-Aug-20 00:31 33.915144 -117.715391 208 3992ft 96kts
02-Aug-20 00:32 33.915144 -117.715391 208 3992ft 96kts
02-Aug-20 00:33 33.915144 -117.715391 208 3992ft 96kts
02-Aug-20 00:34 33.915144 -117.715391 208 3992ft 96kts
02-Aug-20 00:35 33.915144 -117.715391 208 3992ft 96kts
02-Aug-20 00:36 33.915144 -117.715391 208 3992ft 96kts
02-Aug-20 00:37 33.915144 -117.715391 208 3992ft 96kts
02-Aug-20 00:38 33.915144 -117.715391 208 3992ft 96kts
02-Aug-20 00:39 33.915144 -117.715391 208 3992ft 96kts
02-Aug-20 00:40 33.915144 -117.715391 208 3992ft 96kts
02-Aug-20 00:41 33.915144 -117.715391 208 3992ft 96kts
02-Aug-20 00:42 33.915144 -117.715391 208 3992ft 96kts
02-Aug-20 00:43 33.915144 -117.715391 208 3992ft 96kts
02-Aug-20 00:44 33.915144 -117.715391 208 3992ft 96kts
02-Aug-20 00:45 33.915144 -117.715391 208 3992ft 96kts
02-Aug-20 00:46 33.915144 -117.715391 208 3992ft 96kts
02-Aug-20 00:47 33.915144 -117.715391 208 3992ft 96kts
02-Aug-20 00:48 33.915144 -117.715391 208 3992ft 96kts
02-Aug-20 00:49 33.915144 -117.715391 208 3992ft 96kts
02-Aug-20 00:50 33.915144 -117.715391 208 3992ft 96kts
02-Aug-20 00:51 33.915144 -117.715391 208 3992ft 96kts
02-Aug-20 00:52 33.915144 -117.715391 208 3992ft 96kts
02-Aug-20 00:53 33.915144 -117.715391 208 3992ft 96kts
02-Aug-20 00:54 33.915144 -117.715391 208 3992ft 96kts
02-Aug-20 00:55 33.915144 -117.715391 208 3992ft 96kts
02-Aug-20 00:56 33.915144 -117.715391 208 3992ft 96kts
02-Aug-20 00:57 33.915144 -117.715391 208 3992ft 96kts
02-Aug-20 00:58 33.915144 -117.715391 208 3992ft 96kts
02-Aug-20 00:59 33.915144 -117.715391 208 3992ft 96kts
02-Aug-20 01:00 33.915144 -117.715391 208 3992ft 96kts
02-Aug-20 01:01 33.915144 -117.715391 208 3992ft 96kts
02-Aug-20 01:02 33.915144 -117.715391 208 3992ft 96kts
02-Aug-20 01:03 33.915144 -117.715391 208 3992ft 96kts
02-Aug-20 01:04 33.915144 -117.715391 208 3992ft 96kts
02-Aug-20 01:05 33.915144 -117.715391 208 3992ft 96kts
02-Aug-20 01:06 33.915144 -117.715391 208 3992ft 96kts
02-Aug-20 01:07 33.915144 -117.715391 208 3992ft 96kts
02-Aug-20 01:08 33.915144 -117.715391 208 3992ft 96kts
02-Aug-20 01:09 33.915144 -117.715391 208 3992ft 96kts
02-Aug-20 01:10 33.915144 -117.715391 208 3992ft 96kts
02-Aug-20 01:11 33.915144 -117.715391 208 3992ft 96kts
02-Aug-20 01:12 33.915144 -117.715391 208 3992ft 96kts
02-Aug-20 01:13 33.915144 -117.715391 208 3992ft 96kts
02-Aug-20 01:14 33.915144 -117.715391 208 3992ft 96kts
02-Aug-20 01:15 33.915144 -117.715391 208 3992ft 96kts
02-Aug-20 01:16 33.915144 -117.715391 208 3992ft 96kts
02-Aug-20 01:17 33.915144 -117.715391 208 3992ft 96kts
02-Aug-20 01:18 33.915144 -117.715391 208 3992ft 96kts
02-Aug-20 01:19 33.915144 -117.715391 208 3992ft 96kts
02-Aug-20 01:20 33.915144 -117.715391 208 3992ft 96kts
02-Aug-20 01:21 33.915144 -117.715391 208 3992ft 96kts
02-Aug-20 01:22 33.915144 -117.715391 208 3992ft 96kts
02-Aug-20 01:23 33.915144 -117.715391 208 3992ft 96kts
02-Aug-20 01:24 33.915144 -117.715391 208 3992ft 96kts
02-Aug-20 01:25 33.915144 -117.715391 208 3992ft 96kts
02-Aug-20 01:26 33.915144 -117.715391 208 3992ft 96kts
02-Aug-20 01:27 33.915144 -117.715391 208 3992ft 96kts
02-Aug-20 01:28 33.915144 -117.715391 208 3992ft 96kts
02-Aug-20 01:29 33.915144 -117.715391 208 3992ft 96kts
02-Aug-20 01:30 33.915144 -117.715391 208 3992ft 96kts
02-Aug-20 01:31 33.915144 -117.715391 208 3992ft 96kts
02-Aug-20 01:32 33.915144 -117.715391 208 3992ft 96kts
02-Aug-20 01:33 33.915144 -117.715391 208 3992ft 96kts
02-Aug-20 01:34 33.915144 -117.715391 208 3992ft 96kts
02-Aug-20 01:35 33.915144 -117.715391 208 3992ft 96kts
02-Aug-20 01:36 33.899748 -117.725383 205 4040ft 94kts
02-Aug-20 01:37 33.899708 -117.725405 205 4040ft 94kts
02-Aug-20 01:38 33.899708 -117.725405 205 4040ft 94kts
02-Aug-20 01:39 33.899708 -117.725405 205 4040ft 94kts
02-Aug-20 01:40 33.899708 -117.725405 205 4040ft 94kts
02-Aug-20 01:41 33.899708 -117.725405 205 4040ft 94kts
02-Aug-20 01:42 33.899708 -117.725405 205 4040ft 94kts
02-Aug-20 01:43 33.899708 -117.725405 205 4040ft 94kts
02-Aug-20 01:44 33.884906 -117.735227 211 3884ft 93kts
02-Aug-20 01:45 33.862130 -117.751755 209 3602ft 95kts
02-Aug-20 01:46 33.840809 -117.767055 209 3360ft 95kts
02-Aug-20 01:47 33.817050 -117.780463 200 3115ft 94kts
02-Aug-20 01:48 33.793307 -117.793912 207 2856ft 94kts
02-Aug-20 01:49 33.770594 -117.809620 211 2458ft 95kts
02-Aug-20 01:50 33.748809 -117.823712 207 1857ft 79kts
02-Aug-20 01:51 33.731037 -117.833919 205 1192ft 69kts
02-Aug-20 01:52 33.713916 -117.844526 207 660ft 73kts
02-Aug-20 01:53 33.696525 -117.855530 207 445ft 73kts
02-Aug-20 01:55 33.678997 -117.866737 207 68ft 68kts
02-Aug-20 01:56 33.672294 -117.870962 212 60ft 22kts
02-Aug-20 01:57 33.670846 -117.871917 205 60ft 0kts
02-Aug-20 01:58 33.670845 -117.871917 205 60ft 0kts
02-Aug-20 01:59 33.670845 -117.871917 205 60ft 0kts
02-Aug-20 02:00 33.670845 -117.871917 205 60ft 0kts
02-Aug-20 02:01 33.670935 -117.871867 203 60ft 2kts
02-Aug-20 02:02 33.669257 -117.871755 131 60ft 9kts
02-Aug-20 02:03 33.670263 -117.871807 169 60ft 22kts
02-Aug-20 02:04 33.669201 -117.870919 96 60ft 0kts
02-Aug-20 02:05 33.669201 -117.870919 96 60ft 0kts
02-Aug-20 02:06 33.669201 -117.870919 96 60ft 0kts
02-Aug-20 02:07 33.634105 -117.906328 320 1398ft 93kts
02-Aug-20 02:08 33.818016 -117.777009 198 3935ft 109kts
02-Aug-20 02:09 33.903777 -117.725367 207 3949ft 95kts
02-Aug-20 02:10 33.903122 -117.725786 207 3945ft 95kts

Navigation Log

Ident Type
Flight plan parsing failed, navigation log unavailable